Time;durP1;ratioP1;P1;durP2;ratioP2;P2;SDS_P1;SDS_P2;PMS_P1;PMS_P2;Temp;Humidity;BMP_temperature;BMP_pressure;BME280_temperature;BME280_humidity;BME280_pressure;Samples;Min_cycle;Max_cycle;Signal;HPM_P1;HPM_P2
2021/12/31 00:01:57;;;;;;;8.88;3.42;;;;;;;12.30;89.71;101761.47;5026547;28;20167;-65
2021/12/31 00:04:23;;;;;;;7.50;2.83;;;;;;;12.33;89.07;101772.47;5020908;28;20525;-65
2021/12/31 00:06:48;;;;;;;8.10;3.35;;;;;;;12.32;89.01;101764.75;5030531;28;20432;-65
2021/12/31 00:09:13;;;;;;;8.93;3.25;;;;;;;12.35;89.06;101770.59;5021054;28;20030;-65
2021/12/31 00:11:39;;;;;;;6.80;2.60;;;;;;;12.31;89.58;101763.94;5030933;28;20040;-65
2021/12/31 00:14:04;;;;;;;6.60;3.10;;;;;;;12.31;89.49;101768.31;5021873;28;20385;-65
2021/12/31 00:16:30;;;;;;;7.65;2.92;;;;;;;12.34;88.95;101768.09;5027207;28;20159;-65
2021/12/31 00:18:55;;;;;;;6.10;2.60;;;;;;;12.37;89.12;101765.25;5014013;28;20022;-64
2021/12/31 00:21:21;;;;;;;9.10;3.03;;;;;;;12.36;88.69;101771.41;5024858;28;20037;-65
2021/12/31 00:23:46;;;;;;;6.82;2.90;;;;;;;12.35;88.37;101764.56;4993048;28;20057;-65
2021/12/31 00:26:12;;;;;;;7.20;2.67;;;;;;;12.37;88.67;101770.47;5018621;28;20040;-65
2021/12/31 00:28:37;;;;;;;9.25;3.03;;;;;;;12.35;88.45;101774.97;5023703;28;20474;-65
2021/12/31 00:31:03;;;;;;;8.00;2.90;;;;;;;12.38;88.14;101767.72;5013046;28;20196;-65
2021/12/31 00:33:28;;;;;;;8.05;2.90;;;;;;;12.38;88.05;101778.13;5019434;28;20029;-65
2021/12/31 00:35:54;;;;;;;7.65;2.78;;;;;;;12.40;87.60;101770.25;5013276;28;20029;-66
2021/12/31 00:38:19;;;;;;;8.07;3.05;;;;;;;12.40;87.50;101767.66;5019214;28;20034;-65
2021/12/31 00:40:45;;;;;;;7.15;2.60;;;;;;;12.43;87.28;101777.81;4992756;28;20030;-65
2021/12/31 00:43:11;;;;;;;6.60;2.63;;;;;;;12.40;87.40;101770.25;5010412;28;20038;-65
2021/12/31 00:45:40;;;;;;;6.93;2.75;;;;;;;12.43;87.10;101770.00;5016311;28;20107;-65
2021/12/31 00:48:06;;;;;;;6.80;2.80;;;;;;;12.43;86.98;101772.59;5024097;28;20061;-66
2021/12/31 00:50:31;;;;;;;7.35;2.75;;;;;;;12.42;87.16;101761.38;5020090;28;20100;-65
2021/12/31 00:52:57;;;;;;;6.97;2.30;;;;;;;12.45;87.00;101770.75;5030256;28;20061;-65
2021/12/31 00:55:22;;;;;;;7.13;2.70;;;;;;;12.44;86.81;101769.06;5008274;28;20378;-66
2021/12/31 00:57:48;;;;;;;7.22;2.50;;;;;;;12.42;86.63;101776.16;5026959;28;20036;-65
2021/12/31 01:00:15;;;;;;;7.97;2.45;;;;;;;12.41;86.82;101774.50;5028488;28;20152;-65
2021/12/31 01:02:43;;;;;;;7.40;2.88;;;;;;;12.39;87.15;101760.78;5018591;28;20059;-65
2021/12/31 01:05:09;;;;;;;8.02;2.92;;;;;;;12.39;86.99;101776.41;5024897;28;20057;-65
2021/12/31 01:07:35;;;;;;;8.07;2.50;;;;;;;12.41;87.00;101784.91;5031034;28;20025;-65
2021/12/31 01:10:01;;;;;;;4.65;2.40;;;;;;;12.38;86.59;101779.91;5013751;28;20044;-65
2021/12/31 01:12:27;;;;;;;7.63;2.35;;;;;;;12.38;87.49;101790.31;5012971;28;20049;-66
2021/12/31 01:14:57;;;;;;;7.47;2.65;;;;;;;12.37;86.86;101778.25;5014371;28;20562;-66
2021/12/31 01:17:45;;;;;;;8.43;2.65;;;;;;;12.39;86.83;101776.41;5013788;28;20088;-65
2021/12/31 01:20:12;;;;;;;6.78;2.63;;;;;;;12.40;86.65;101767.66;4995514;28;20033;-65
2021/12/31 01:22:37;;;;;;;7.07;2.40;;;;;;;12.41;86.19;101779.69;5033091;28;20017;-65
2021/12/31 01:25:04;;;;;;;6.03;2.55;;;;;;;12.41;86.85;101779.69;5025147;28;20477;-66
2021/12/31 01:27:30;;;;;;;6.18;2.50;;;;;;;12.38;86.40;101764.31;5011754;28;20509;-66
2021/12/31 01:29:55;;;;;;;6.65;2.47;;;;;;;12.39;86.71;101776.41;5015615;28;20053;-66
2021/12/31 01:32:21;;;;;;;5.68;2.50;;;;;;;12.39;86.36;101774.63;5013614;28;20497;-65
2021/12/31 01:34:46;;;;;;;6.68;2.30;;;;;;;12.38;86.30;101779.91;5012960;28;20509;-65
2021/12/31 01:37:11;;;;;;;7.45;2.17;;;;;;;12.38;86.84;101779.91;5010985;28;20398;-66
2021/12/31 01:39:37;;;;;;;6.70;2.47;;;;;;;12.39;86.30;101792.00;4995463;28;20048;-66
2021/12/31 01:42:07;;;;;;;7.45;2.60;;;;;;;12.38;86.16;101785.13;5012967;28;20038;-67
2021/12/31 01:44:37;;;;;;;7.22;2.55;;;;;;;12.36;86.76;101781.81;5013492;28;20036;-65
2021/12/31 01:47:08;;;;;;;7.97;2.55;;;;;;;12.36;86.01;101787.00;4996185;28;20037;-65
2021/12/31 01:49:36;;;;;;;5.68;2.20;;;;;;;12.37;86.16;101783.47;5017765;28;20111;-66
2021/12/31 01:52:03;;;;;;;7.95;2.50;;;;;;;12.36;86.31;101793.03;5017134;28;20462;-66
2021/12/31 01:54:33;;;;;;;8.40;2.45;;;;;;;12.35;86.80;101793.16;5009871;28;20117;-65
2021/12/31 01:57:01;;;;;;;7.07;2.40;;;;;;;12.33;86.75;101795.03;5005753;28;20029;-67
2021/12/31 01:59:28;;;;;;;5.47;2.40;;;;;;;12.31;86.96;101789.94;5009471;28;20057;-65
2021/12/31 02:01:55;;;;;;;6.13;2.25;;;;;;;12.32;86.83;101801.19;5011934;28;20477;-66
2021/12/31 02:04:20;;;;;;;5.03;2.40;;;;;;;12.29;86.77;101793.63;5017117;28;20387;-65
2021/12/31 02:06:45;;;;;;;5.57;2.40;;;;;;;12.31;86.35;101796.94;5010065;28;20057;-66
2021/12/31 02:09:12;;;;;;;6.97;2.72;;;;;;;12.29;86.64;101797.03;5012703;28;20038;-65
2021/12/31 02:11:38;;;;;;;7.65;2.80;;;;;;;12.28;86.21;101808.41;4994975;28;20033;-65
2021/12/31 02:14:04;;;;;;;6.78;2.40;;;;;;;12.26;86.35;101801.63;4995222;28;20556;-65
2021/12/31 02:16:31;;;;;;;7.30;2.45;;;;;;;12.32;86.40;101801.19;5012820;28;20026;-65
2021/12/31 02:18:57;;;;;;;5.75;2.67;;;;;;;12.32;86.29;101790.78;5022942;28;20026;-66
2021/12/31 02:21:23;;;;;;;6.40;2.40;;;;;;;12.34;86.59;101794.13;5012296;28;20084;-65
2021/12/31 02:23:55;;;;;;;7.68;2.42;;;;;;;12.29;86.61;101788.41;5012585;28;20509;-65
2021/12/31 02:26:21;;;;;;;6.95;2.40;;;;;;;12.29;86.42;101791.03;5012151;28;20125;-65
2021/12/31 02:28:46;;;;;;;6.22;2.40;;;;;;;12.30;86.43;101788.28;5012575;28;20112;-65
2021/12/31 02:31:11;;;;;;;7.53;2.60;;;;;;;12.28;86.38;101786.75;5011884;28;20539;-66
2021/12/31 02:33:37;;;;;;;8.07;2.90;;;;;;;12.27;86.28;101782.47;5028058;28;20029;-67
2021/12/31 02:36:05;;;;;;;8.80;2.53;;;;;;;12.25;86.31;101789.56;5011383;28;20022;-67
2021/12/31 02:38:31;;;;;;;7.22;2.50;;;;;;;12.30;86.04;101792.66;5015741;28;20026;-65
2021/12/31 02:40:56;;;;;;;7.57;2.30;;;;;;;12.26;86.34;101780.81;5024696;28;20037;-66
2021/12/31 02:43:21;;;;;;;5.80;2.25;;;;;;;12.26;85.94;101775.63;5003521;28;20128;-68
2021/12/31 02:45:47;;;;;;;7.88;2.85;;;;;;;12.26;86.18;101770.41;5012292;28;20034;-65
2021/12/31 02:48:13;;;;;;;8.07;2.65;;;;;;;12.26;86.27;101773.03;5012248;28;20030;-66
2021/12/31 02:50:41;;;;;;;6.60;2.78;;;;;;;12.22;85.72;101769.84;5013824;28;20095;-66
2021/12/31 02:53:11;;;;;;;7.55;3.05;;;;;;;12.25;85.70;101768.75;5019707;28;20122;-65
2021/12/31 02:55:37;;;;;;;6.22;2.63;;;;;;;12.25;85.65;101773.97;4994385;28;20026;-65
2021/12/31 02:58:05;;;;;;;7.63;2.53;;;;;;;12.22;86.20;101770.66;5011510;28;20084;-65
2021/12/31 03:00:31;;;;;;;6.88;2.38;;;;;;;12.22;85.26;101768.06;4998879;28;20497;-66
2021/12/31 03:02:59;;;;;;;8.18;2.63;;;;;;;12.22;85.60;101775.88;5013359;28;20033;-66
2021/12/31 03:05:26;;;;;;;6.43;2.00;;;;;;;12.22;86.17;101770.66;5014319;28;20064;-65
2021/12/31 03:07:53;;;;;;;8.50;2.42;;;;;;;12.20;85.84;101777.72;5009989;28;20784;-65
2021/12/31 03:10:20;;;;;;;6.55;2.42;;;;;;;12.18;85.87;101769.22;5029701;28;20109;-65
2021/12/31 03:12:49;;;;;;;7.53;2.22;;;;;;;12.23;85.53;101769.72;5006440;28;20533;-66
2021/12/31 03:15:15;;;;;;;6.70;2.45;;;;;;;12.20;85.48;101767.31;5025919;28;20379;-66
2021/12/31 03:17:41;;;;;;;5.43;2.00;;;;;;;12.21;85.55;101773.34;5008446;28;20658;-65
2021/12/31 03:20:24;;;;;;;6.80;2.50;;;;;;;12.23;85.64;101767.13;5023574;28;20026;-65
2021/12/31 03:22:50;;;;;;;5.00;2.33;;;;;;;12.21;85.54;101758.59;5014628;28;20033;-65
2021/12/31 03:25:15;;;;;;;7.45;2.60;;;;;;;12.19;85.67;101754.44;5027746;28;20477;-65
2021/12/31 03:27:40;;;;;;;5.55;2.17;;;;;;;12.21;85.19;101753.41;5000591;28;20478;-65
2021/12/31 03:30:06;;;;;;;7.30;2.33;;;;;;;12.16;85.77;101755.50;5021039;28;20425;-66
2021/12/31 03:32:31;;;;;;;7.10;2.60;;;;;;;12.17;85.68;101761.53;5026799;28;20067;-65
2021/12/31 03:34:57;;;;;;;6.55;2.70;;;;;;;12.14;85.48;101749.56;5009875;28;20037;-66
2021/12/31 03:37:22;;;;;;;6.10;2.30;;;;;;;12.13;85.71;101760.91;4997864;28;20027;-66
2021/12/31 03:39:48;;;;;;;5.78;2.60;;;;;;;12.16;85.43;101750.31;5009986;28;20030;-65
2021/12/31 03:42:16;;;;;;;10.32;3.03;;;;;;;12.16;85.06;101745.09;5011064;28;20030;-65
2021/12/31 03:44:42;;;;;;;6.63;2.60;;;;;;;12.12;85.43;101754.06;5015169;28;20030;-65
2021/12/31 03:47:07;;;;;;;6.13;2.40;;;;;;;12.16;85.23;101752.91;5011241;28;20441;-66
2021/12/31 03:49:33;;;;;;;7.57;2.80;;;;;;;12.13;85.35;101745.31;5026176;28;20025;-65
2021/12/31 03:51:58;;;;;;;9.85;2.80;;;;;;;12.12;85.07;101754.06;5017156;28;20025;-65
2021/12/31 03:54:23;;;;;;;6.40;2.50;;;;;;;12.10;85.02;101744.69;5019091;28;20025;-65
2021/12/31 03:56:49;;;;;;;8.52;2.58;;;;;;;12.12;85.45;101743.66;5030685;28;20443;-66
2021/12/31 03:59:14;;;;;;;6.88;2.85;;;;;;;12.11;85.21;101749.81;5012038;28;20030;-65
2021/12/31 04:01:40;;;;;;;8.98;2.80;;;;;;;12.10;85.48;101740.34;5010461;28;20033;-66
2021/12/31 04:04:07;;;;;;;5.95;2.67;;;;;;;12.11;85.10;101739.41;5011455;28;20039;-65
2021/12/31 04:06:34;;;;;;;7.72;2.83;;;;;;;12.09;85.90;101749.06;5018896;28;20140;-65
2021/12/31 04:08:59;;;;;;;8.70;3.90;;;;;;;12.08;85.85;101747.41;5011946;28;20033;-65
2021/12/31 04:11:24;;;;;;;8.38;3.05;;;;;;;12.07;85.32;101750.97;5016004;28;20029;-65
2021/12/31 04:13:49;;;;;;;6.88;2.60;;;;;;;12.11;85.56;101746.38;5025678;28;20064;-65
2021/12/31 04:16:15;;;;;;;7.97;3.10;;;;;;;12.07;85.17;101740.56;5019827;28;20489;-65
2021/12/31 04:18:40;;;;;;;7.15;2.63;;;;;;;12.07;85.18;101740.56;5022982;28;20117;-65
2021/12/31 04:21:06;;;;;;;8.55;3.05;;;;;;;12.07;85.56;101748.38;5004167;28;20129;-66
2021/12/31 04:23:34;;;;;;;6.57;2.80;;;;;;;12.06;85.75;101738.91;5013222;28;20099;-65
2021/12/31 04:26:00;;;;;;;7.60;3.17;;;;;;;12.04;85.81;101740.78;5023370;28;20033;-65
2021/12/31 04:28:27;;;;;;;9.05;3.13;;;;;;;12.04;85.84;101740.78;4995802;28;20037;-65
2021/12/31 04:30:53;;;;;;;7.35;3.08;;;;;;;12.02;85.71;101737.47;5020971;28;20132;-65
2021/12/31 04:33:18;;;;;;;6.05;2.75;;;;;;;12.00;86.05;101728.97;5019379;28;20120;-65
2021/12/31 04:35:44;;;;;;;7.03;2.90;;;;;;;12.03;86.18;101740.91;5012592;28;20132;-65
2021/12/31 04:38:09;;;;;;;8.30;3.22;;;;;;;11.99;85.90;101734.28;5018970;28;20512;-65
2021/12/31 04:40:35;;;;;;;9.30;3.40;;;;;;;11.97;86.16;101723.97;4996573;28;20029;-65
2021/12/31 04:43:00;;;;;;;9.05;2.97;;;;;;;11.97;86.09;101718.78;5019419;28;20034;-65
2021/12/31 04:45:25;;;;;;;6.95;2.92;;;;;;;11.98;86.02;101715.22;5005615;28;20112;-65
2021/12/31 04:47:51;;;;;;;7.88;3.42;;;;;;;11.88;86.13;101698.66;4996741;28;20489;-65
2021/12/31 04:50:17;;;;;;;8.20;3.50;;;;;;;11.97;85.70;101723.97;5018212;28;20035;-65
2021/12/31 04:52:43;;;;;;;9.38;3.75;;;;;;;11.97;86.00;101713.56;5014714;28;20541;-65
2021/12/31 04:55:09;;;;;;;8.43;3.38;;;;;;;11.94;85.85;101719.03;5016016;28;20048;-65
2021/12/31 04:57:35;;;;;;;9.15;3.38;;;;;;;11.94;86.15;101719.03;5011571;28;20029;-65
2021/12/31 05:00:00;;;;;;;8.48;3.40;;;;;;;11.95;85.25;101731.06;5020732;28;20026;-65
2021/12/31 05:02:26;;;;;;;9.00;3.47;;;;;;;11.93;85.89;101725.16;5027832;28;20044;-66
2021/12/31 05:04:51;;;;;;;5.95;3.10;;;;;;;11.92;86.10;101726.06;5021105;28;20474;-65
2021/12/31 05:07:17;;;;;;;6.50;3.22;;;;;;;11.90;86.51;101714.97;5010696;28;20497;-65
2021/12/31 05:09:42;;;;;;;7.05;3.08;;;;;;;11.91;85.79;101729.63;5013763;28;20466;-65
2021/12/31 05:12:13;;;;;;;5.93;2.88;;;;;;;11.92;85.84;101731.28;5018900;28;20492;-65
2021/12/31 05:14:39;;;;;;;7.00;3.22;;;;;;;11.90;85.97;101733.16;5025506;28;20124;-66
2021/12/31 05:17:04;;;;;;;7.93;3.47;;;;;;;11.90;86.08;101717.56;5016223;28;20029;-65
2021/12/31 05:19:29;;;;;;;7.53;3.30;;;;;;;11.90;85.48;101722.78;5020017;28;20060;-65
2021/12/31 05:21:55;;;;;;;6.93;3.13;;;;;;;11.94;85.69;101724.22;5022974;28;20036;-65
2021/12/31 05:24:20;;;;;;;8.93;3.33;;;;;;;11.93;85.47;101722.56;5015487;28;20112;-65
2021/12/31 05:26:45;;;;;;;9.18;3.30;;;;;;;11.95;84.91;101720.66;5017620;28;20486;-65
2021/12/31 05:29:11;;;;;;;7.47;2.97;;;;;;;11.92;85.58;101710.47;5029745;28;20404;-65
2021/12/31 05:31:36;;;;;;;8.82;3.10;;;;;;;11.93;85.24;101712.16;5005850;28;20065;-65
2021/12/31 05:34:02;;;;;;;9.57;4.78;;;;;;;11.91;85.72;101703.63;4996158;28;20475;-65
2021/12/31 05:36:27;;;;;;;7.53;3.10;;;;;;;11.88;85.55;101698.66;5003709;28;20398;-65
2021/12/31 05:38:52;;;;;;;6.22;3.13;;;;;;;11.85;85.31;101694.50;5024321;28;20029;-66
2021/12/31 05:41:18;;;;;;;8.82;3.10;;;;;;;11.85;84.97;101694.50;5013049;28;20459;-65
2021/12/31 05:43:43;;;;;;;7.75;3.20;;;;;;;11.84;84.91;101684.22;5022142;28;20037;-66
2021/12/31 05:46:09;;;;;;;7.93;2.70;;;;;;;11.83;85.28;101686.00;5020065;28;20079;-65
2021/12/31 05:48:34;;;;;;;7.78;2.90;;;;;;;11.83;84.77;101669.56;5024768;28;20389;-67
2021/12/31 05:50:59;;;;;;;7.05;2.80;;;;;;;11.84;84.42;101679.84;5021592;28;20069;-66
2021/12/31 05:53:25;;;;;;;5.72;2.72;;;;;;;11.78;84.78;101672.47;5006311;28;20053;-65
2021/12/31 05:55:50;;;;;;;8.07;2.90;;;;;;;11.75;85.10;101684.84;5011249;28;20026;-66
2021/12/31 05:58:16;;;;;;;10.00;3.17;;;;;;;11.75;84.58;101683.09;5024227;28;20043;-65
2021/12/31 06:00:41;;;;;;;6.88;2.92;;;;;;;11.76;85.13;101694.34;5003084;28;20061;-65
2021/12/31 06:03:06;;;;;;;7.10;3.20;;;;;;;11.73;84.94;101691.94;5024165;28;20105;-66
2021/12/31 06:05:32;;;;;;;7.88;3.15;;;;;;;11.65;84.80;101693.34;5003770;28;20030;-65
2021/12/31 06:07:58;;;;;;;8.15;3.22;;;;;;;11.66;84.71;101689.78;4995051;28;20048;-65
2021/12/31 06:10:24;;;;;;;8.30;3.85;;;;;;;11.60;84.87;101690.25;5011043;28;20032;-65
2021/12/31 06:12:57;;;;;;;7.75;3.25;;;;;;;11.58;84.68;101692.09;5006605;28;20071;-65
2021/12/31 06:15:25;;;;;;;9.60;3.35;;;;;;;11.53;84.85;101699.41;5013471;28;20029;-66
2021/12/31 06:17:51;;;;;;;8.30;3.10;;;;;;;11.49;84.79;101703.16;5025693;28;20035;-65
2021/12/31 06:20:16;;;;;;;7.75;3.35;;;;;;;11.48;85.21;101696.31;5015387;28;20100;-65
2021/12/31 06:22:41;;;;;;;6.35;2.92;;;;;;;11.42;84.75;101707.97;5021873;28;20029;-65
2021/12/31 06:25:07;;;;;;;9.98;3.22;;;;;;;11.41;85.67;101715.84;5030405;28;20041;-66
2021/12/31 06:27:33;;;;;;;6.82;3.30;;;;;;;11.36;85.24;101713.59;4997097;28;20061;-65
2021/12/31 06:29:58;;;;;;;8.18;3.13;;;;;;;11.31;85.28;101699.28;5030095;28;20084;-65
2021/12/31 06:32:24;;;;;;;6.63;3.40;;;;;;;11.29;85.67;101690.75;4990611;28;20045;-65
2021/12/31 06:34:49;;;;;;;8.70;3.42;;;;;;;11.26;85.62;101701.38;4998083;28;20023;-65
2021/12/31 06:37:14;;;;;;;8.43;3.35;;;;;;;11.25;85.51;101704.91;4996468;28;20030;-65
2021/12/31 06:39:42;;;;;;;9.60;3.58;;;;;;;11.21;85.86;101706.88;4997870;28;20450;-65
2021/12/31 06:42:08;;;;;;;8.65;3.65;;;;;;;11.20;85.54;101696.63;5012733;28;20038;-65
2021/12/31 06:44:35;;;;;;;7.95;3.60;;;;;;;11.14;85.70;101706.50;5012242;28;20048;-65
2021/12/31 06:47:01;;;;;;;7.25;3.50;;;;;;;11.12;85.58;101710.94;5013817;28;20030;-65
2021/12/31 06:49:27;;;;;;;7.93;3.25;;;;;;;11.09;86.29;101710.34;5004452;28;20037;-64
2021/12/31 06:51:52;;;;;;;8.27;3.47;;;;;;;11.06;85.51;101698.38;5008379;28;20405;-65
2021/12/31 06:54:17;;;;;;;8.95;3.38;;;;;;;11.06;85.90;101711.38;5029319;28;20529;-65
2021/12/31 06:56:43;;;;;;;7.85;3.65;;;;;;;11.04;86.24;101713.25;5032281;28;20044;-65
2021/12/31 06:59:08;;;;;;;6.82;3.22;;;;;;;10.98;85.78;101715.44;5014442;28;20025;-65
2021/12/31 07:01:33;;;;;;;7.90;3.28;;;;;;;10.96;85.73;101709.53;5028457;28;20121;-64
2021/12/31 07:03:58;;;;;;;8.13;3.50;;;;;;;10.95;86.24;101724.25;5020023;28;20136;-65
2021/12/31 07:06:24;;;;;;;6.35;3.20;;;;;;;10.93;87.00;101720.13;5005649;28;20026;-65
2021/12/31 07:08:49;;;;;;;8.43;3.63;;;;;;;10.87;86.55;101726.56;5003730;28;20029;-65
2021/12/31 07:11:17;;;;;;;7.07;3.20;;;;;;;10.92;86.32;101718.47;5000805;28;20414;-65
2021/12/31 07:13:42;;;;;;;7.57;3.50;;;;;;;10.90;86.35;101722.00;4994246;28;20031;-65
2021/12/31 07:16:08;;;;;;;8.93;3.33;;;;;;;10.87;86.06;101713.59;4996071;28;20029;-65
2021/12/31 07:18:33;;;;;;;7.60;3.47;;;;;;;10.83;86.19;101707.75;4998873;28;20433;-65
2021/12/31 07:20:58;;;;;;;7.78;3.10;;;;;;;10.86;86.56;101709.34;4999021;28;20068;-65
2021/12/31 07:23:24;;;;;;;9.18;3.47;;;;;;;10.84;86.58;101714.63;4996143;28;20458;-64
2021/12/31 07:25:49;;;;;;;9.27;3.40;;;;;;;10.82;86.18;101713.88;4997995;28;20036;-65
2021/12/31 07:28:16;;;;;;;6.30;3.00;;;;;;;10.81;85.66;101721.78;5024733;28;20048;-65
2021/12/31 07:30:42;;;;;;;6.28;3.20;;;;;;;10.79;86.13;101721.91;5028212;28;20072;-65
2021/12/31 07:33:19;;;;;;;6.43;3.28;;;;;;;10.80;86.39;101730.50;5009437;28;20753;-65
2021/12/31 07:35:45;;;;;;;7.32;3.05;;;;;;;10.76;86.30;101718.69;4992567;28;20121;-65
2021/12/31 07:38:19;;;;;;;6.20;2.85;;;;;;;10.76;86.73;101729.06;5010905;28;20045;-66
2021/12/31 07:40:45;;;;;;;7.55;3.30;;;;;;;10.72;86.50;101735.38;5012828;28;20458;-65
2021/12/31 07:43:12;;;;;;;7.57;3.20;;;;;;;10.67;86.37;101727.94;5010324;28;20477;-65
2021/12/31 07:45:38;;;;;;;5.10;2.80;;;;;;;10.70;86.59;101713.91;5009051;28;20041;-65
2021/12/31 07:48:04;;;;;;;5.85;2.90;;;;;;;10.68;86.41;101711.41;4992767;28;20388;-66
2021/12/31 07:50:30;;;;;;;8.18;3.78;;;;;;;10.68;86.91;101736.53;5013684;28;20478;-65
2021/12/31 07:52:55;;;;;;;7.10;3.40;;;;;;;10.68;86.09;101733.94;5013891;28;20033;-65
2021/12/31 07:55:21;;;;;;;7.10;2.90;;;;;;;10.62;86.01;101720.44;5008226;28;20453;-65
2021/12/31 07:57:47;;;;;;;5.85;2.78;;;;;;;10.63;86.51;101724.69;5013780;28;20044;-68
2021/12/31 08:00:12;;;;;;;7.93;3.15;;;;;;;10.61;86.15;101723.97;5012088;28;20033;-66
2021/12/31 08:02:38;;;;;;;9.80;5.50;;;;;;;10.64;86.13;101726.34;4994006;28;20034;-65
2021/12/31 08:05:04;;;;;;;6.85;2.90;;;;;;;10.64;86.45;101731.53;5013870;28;20418;-65
2021/12/31 08:07:29;;;;;;;6.38;2.67;;;;;;;10.64;86.12;101736.72;5012791;28;20113;-65
2021/12/31 08:09:54;;;;;;;7.95;3.30;;;;;;;10.63;86.48;101745.44;5004113;28;20034;-65
2021/12/31 08:12:20;;;;;;;5.50;2.88;;;;;;;10.65;85.70;101732.38;5004624;28;20053;-65
2021/12/31 08:14:45;;;;;;;7.30;2.85;;;;;;;10.61;85.87;101736.94;5016182;28;20124;-66
2021/12/31 08:17:10;;;;;;;6.55;2.67;;;;;;;10.63;85.94;101735.06;5026229;28;20038;-68
2021/12/31 08:19:36;;;;;;;6.95;2.70;;;;;;;10.63;85.84;101735.06;5029938;28;20026;-66
2021/12/31 08:22:01;;;;;;;7.20;2.85;;;;;;;10.63;85.43;101745.44;5030383;28;20193;-65
2021/12/31 08:24:26;;;;;;;6.18;2.92;;;;;;;10.63;85.43;101740.25;5030566;28;20021;-65
2021/12/31 08:26:52;;;;;;;5.80;2.80;;;;;;;10.67;84.88;101750.41;5029082;28;20512;-65
2021/12/31 08:29:18;;;;;;;6.60;2.72;;;;;;;10.63;85.20;101737.66;5030483;28;20456;-66
2021/12/31 08:31:44;;;;;;;5.75;2.80;;;;;;;10.63;85.75;101729.88;5030165;28;20053;-66
2021/12/31 08:34:10;;;;;;;4.40;2.70;;;;;;;10.63;85.78;101729.88;5010518;28;20025;-65
2021/12/31 08:36:36;;;;;;;7.20;3.08;;;;;;;10.64;85.47;101736.72;4992631;28;20366;-65
2021/12/31 08:39:04;;;;;;;6.18;2.88;;;;;;;10.69;85.56;101733.00;4992806;28;20040;-65
2021/12/31 08:41:30;;;;;;;5.97;2.70;;;;;;;10.68;85.52;101741.72;5010713;28;20458;-65
2021/12/31 08:43:55;;;;;;;5.97;2.75;;;;;;;10.71;85.02;101738.91;5014614;28;20462;-65
2021/12/31 08:46:20;;;;;;;6.15;3.22;;;;;;;10.72;85.12;101741.41;5001374;28;20033;-65
2021/12/31 08:48:46;;;;;;;5.88;2.85;;;;;;;10.75;85.19;101730.00;5030134;28;20108;-65
2021/12/31 08:51:11;;;;;;;5.30;2.85;;;;;;;10.73;85.54;101727.50;5030134;28;20032;-64
2021/12/31 08:53:36;;;;;;;5.78;2.60;;;;;;;10.79;84.91;101721.06;5003922;28;20481;-65
2021/12/31 08:56:02;;;;;;;5.22;2.70;;;;;;;10.81;84.16;101701.84;5015693;28;20076;-66
2021/12/31 08:58:27;;;;;;;5.32;2.45;;;;;;;10.79;84.57;101710.69;5029519;28;20021;-66
2021/12/31 09:00:52;;;;;;;5.20;2.70;;;;;;;10.79;84.18;101713.28;5012070;28;20493;-65
2021/12/31 09:03:18;;;;;;;5.70;2.72;;;;;;;10.81;84.43;101706.22;5029843;28;20057;-65
2021/12/31 09:05:43;;;;;;;4.45;2.50;;;;;;;10.83;84.66;101699.16;5022296;28;20021;-65
2021/12/31 09:08:08;;;;;;;5.80;2.72;;;;;;;10.82;84.20;101705.28;5010039;28;20509;-64
2021/12/31 09:10:34;;;;;;;5.30;3.00;;;;;;;10.86;84.25;101704.13;5010285;28;20672;-65
2021/12/31 09:12:59;;;;;;;7.80;2.80;;;;;;;10.89;83.18;101719.50;5010197;28;20025;-64
2021/12/31 09:15:25;;;;;;;6.47;2.45;;;;;;;10.91;83.88;101730.63;4993273;28;20413;-65
2021/12/31 09:17:50;;;;;;;5.47;2.50;;;;;;;10.95;83.41;101723.44;5032733;28;20083;-64
2021/12/31 09:20:16;;;;;;;6.07;2.60;;;;;;;10.94;84.29;101722.59;5028467;28;20355;-64
2021/12/31 09:22:41;;;;;;;5.15;2.53;;;;;;;10.95;83.12;101719.06;5023564;28;20041;-65
2021/12/31 09:25:07;;;;;;;5.47;2.50;;;;;;;10.96;83.86;101730.31;4998400;28;20033;-64
2021/12/31 09:27:32;;;;;;;5.43;2.60;;;;;;;10.99;83.87;101727.47;5032428;28;20489;-64
2021/12/31 09:29:58;;;;;;;4.43;2.40;;;;;;;11.02;82.98;101730.72;5033365;28;20061;-64
2021/12/31 09:32:23;;;;;;;6.70;3.10;;;;;;;11.01;83.52;101723.00;5025922;28;20105;-65
2021/12/31 09:34:48;;;;;;;4.85;2.67;;;;;;;11.04;82.63;101734.03;5005260;28;20034;-64
2021/12/31 09:37:15;;;;;;;4.40;2.50;;;;;;;11.05;83.34;101740.03;4997427;28;20451;-65
2021/12/31 09:39:41;;;;;;;5.70;2.60;;;;;;;11.05;83.04;101746.06;4999358;28;20033;-65
2021/12/31 09:42:07;;;;;;;4.72;2.65;;;;;;;11.09;82.66;101757.91;4978558;28;20050;-65
2021/12/31 09:44:34;;;;;;;7.55;3.17;;;;;;;11.10;82.83;101758.72;5005798;28;20478;-66
2021/12/31 09:47:02;;;;;;;7.05;2.80;;;;;;;11.10;83.09;101758.72;4995254;28;20030;-64
2021/12/31 09:49:28;;;;;;;7.47;2.90;;;;;;;11.13;83.28;101764.56;5014512;28;20056;-65
2021/12/31 09:51:56;;;;;;;6.95;3.08;;;;;;;11.13;82.77;101771.50;5002306;28;20053;-65
2021/12/31 09:54:22;;;;;;;5.18;2.58;;;;;;;11.15;83.28;101778.25;5005698;28;20021;-66
2021/12/31 09:56:49;;;;;;;5.93;2.90;;;;;;;11.14;83.58;101768.81;5009216;28;20045;-65
2021/12/31 09:59:14;;;;;;;5.07;2.80;;;;;;;11.16;83.15;101785.09;5013723;28;20087;-65
2021/12/31 10:01:47;;;;;;;6.05;2.97;;;;;;;11.17;82.99;101775.53;5025745;28;20504;-65
2021/12/31 10:04:12;;;;;;;5.65;2.58;;;;;;;11.17;83.34;101770.34;5012910;28;20044;-67
2021/12/31 10:06:38;;;;;;;7.82;3.10;;;;;;;11.17;83.54;101755.59;5000502;28;20402;-66
2021/12/31 10:09:03;;;;;;;5.00;2.70;;;;;;;11.18;83.09;101759.00;5002970;28;20386;-65
2021/12/31 10:11:29;;;;;;;6.60;2.85;;;;;;;11.20;82.91;101774.50;4998385;28;20026;-65
2021/12/31 10:13:56;;;;;;;5.80;2.97;;;;;;;11.21;82.49;101781.34;4997481;28;20378;-65
2021/12/31 10:16:31;;;;;;;5.82;2.90;;;;;;;11.22;83.03;101772.63;5001302;28;20022;-64
2021/12/31 10:19:29;;;;;;;5.22;3.00;;;;;;;11.23;83.32;101748.31;5001151;28;20030;-65
2021/12/31 10:21:56;;;;;;;8.47;3.17;;;;;;;11.22;82.83;101757.03;4961384;28;20065;-65
2021/12/31 10:24:25;;;;;;;6.72;2.95;;;;;;;11.21;82.82;101763.19;4996433;28;20038;-65
2021/12/31 10:26:52;;;;;;;6.75;3.10;;;;;;;11.20;83.59;101743.34;4995254;28;20030;-64
2021/12/31 10:29:18;;;;;;;5.70;2.90;;;;;;;11.22;83.71;101736.28;4994741;28;20085;-64
2021/12/31 10:31:46;;;;;;;5.50;2.95;;;;;;;11.22;83.27;101731.09;4997781;28;20038;-64
2021/12/31 10:34:28;;;;;;;5.13;2.80;;;;;;;11.25;83.30;101741.28;5004530;28;20026;-65
2021/12/31 10:36:55;;;;;;;5.85;2.97;;;;;;;11.27;83.78;101750.59;4999094;28;20038;-65
2021/12/31 10:39:23;;;;;;;6.30;3.10;;;;;;;11.28;83.18;101754.03;4998020;28;20034;-64
2021/12/31 10:42:06;;;;;;;8.75;3.83;;;;;;;11.27;82.78;101745.41;5006511;28;20029;-65
2021/12/31 10:44:51;;;;;;;6.03;3.30;;;;;;;11.31;83.46;101759.84;5000630;28;20022;-65
2021/12/31 10:47:23;;;;;;;5.90;3.05;;;;;;;11.33;82.65;101764.94;5014746;28;20544;-65
2021/12/31 10:50:07;;;;;;;8.30;3.35;;;;;;;11.35;82.92;101773.44;4994747;28;20053;-65
2021/12/31 10:52:42;;;;;;;7.95;3.10;;;;;;;11.34;82.93;101771.78;5002208;28;20025;-65
2021/12/31 10:55:21;;;;;;;6.80;3.20;;;;;;;11.34;83.43;101776.97;5010330;28;20037;-66
2021/12/31 10:57:50;;;;;;;7.13;3.40;;;;;;;11.34;83.13;101764.81;5010765;28;20053;-67
2021/12/31 11:00:17;;;;;;;6.25;2.90;;;;;;;11.36;83.01;101762.13;5001308;28;20036;-66
2021/12/31 11:02:43;;;;;;;6.72;2.75;;;;;;;11.38;82.54;101757.66;4994916;28;20406;-67
2021/12/31 11:05:10;;;;;;;6.07;3.30;;;;;;;11.43;81.95;101752.97;5010282;28;20109;-66
2021/12/31 11:07:37;;;;;;;6.75;3.10;;;;;;;11.46;82.31;101750.13;4993371;28;20067;-66
2021/12/31 11:10:04;;;;;;;6.85;3.17;;;;;;;11.49;83.01;101749.94;5011660;28;20501;-66
2021/12/31 11:12:30;;;;;;;6.35;2.95;;;;;;;11.52;82.17;101744.50;5011755;28;20025;-66
2021/12/31 11:14:56;;;;;;;5.07;2.90;;;;;;;11.56;82.67;101724.34;5014347;28;20029;-66
2021/12/31 11:17:23;;;;;;;6.85;3.28;;;;;;;11.62;82.81;101714.34;5014627;28;20382;-66
2021/12/31 11:19:50;;;;;;;7.40;2.97;;;;;;;11.67;82.01;101714.84;5014950;28;20026;-66
2021/12/31 11:22:21;;;;;;;6.35;3.15;;;;;;;11.72;81.96;101705.88;4991285;28;20050;-66